AirNav   Air Wisconsin pilot careers
 
 435 users online  

F89 Winnsboro Municipal Airport
Winnsboro, Louisiana, USA

GOING TO WINNSBORO?


FAA INFORMATION EFFECTIVE 26 APRIL 2018

Location

FAA Identifier: F89
Lat/Long: 32-09-10.8250N / 091-41-54.8050W
32-09.180417N / 091-41.913417W
32.1530069 / -91.6985569
(estimated)
Elevation: 78 ft. / 23.8 m (surveyed)
Variation: 04E (1985)
From city: 1 mile E of WINNSBORO, LA
Time zone: UTC -5 (UTC -6 during Standard Time)
Zip code: 71295

Airport Operations

Airport use: Open to the public
Activation date: 06/1945
Control tower: no
ARTCC: FORT WORTH CENTER
FSS: DE RIDDER FLIGHT SERVICE STATION
NOTAMs facility: DRI (NOTAM-D service available)
Attendance: ON CALL
318-282-4524
Wind indicator: lighted
Segmented circle: no
Lights: MIRL RWY 18-36 PRESET LOW INTS DUSK TO DAWN, TO INCREASE INTS ACTIVATE-CTAF.
Beacon: white-green (lighted land airport)
Operates sunset to sunrise.

Airport Communications

CTAF/UNICOM: 122.8

Nearby radio navigation aids

VOR radial/distance  VOR name  Freq  Var
MLUr139/27.7MONROE VORTAC117.2003E
HEZr325/38.0NATCHEZ VOR/DME110.0003E

 
NDB name  Hdg/Dist  Freq  Var  ID
NATCHEZ-ADAMS COUNTY323/34.638800EHAH .... .- ....
TALLULAH259/34.634402ETKH - -.- ....
BASTROP162/37.332903EBQP -... --.- .--.

Airport Services

Fuel available: 100LL
FUEL AVBL 24 HRS SELF SERVE WITH CREDIT CARD.
Parking: tiedowns
Airframe service: MINOR
Powerplant service: MINOR
Bottled oxygen: NONE
Bulk oxygen: NONE

Runway Information

Runway 18/36

Dimensions: 3000 x 75 ft. / 914 x 23 m
Surface: asphalt, in fair condition
Weight bearing capacity: 
Single wheel: 11.0
Runway edge lights: medium intensity
RUNWAY 18  RUNWAY 36
Latitude: 32-09.427833N32-08.933000N
Longitude: 091-41.910833W091-41.916000W
Elevation: 76.0 ft.78.0 ft.
Gradient: 0.1%0.1%
Traffic pattern: leftleft
Runway heading: 176 magnetic, 180 true356 magnetic, 000 true
Markings: basic, in fair conditionbasic, in fair condition
Visual slope indicator: 2-light PAPI on left (3.75 degrees glide path)2-light PAPI on left (3.10 degrees glide path)
Runway end identifier lights: yes
Obstructions: 39 ft. trees, 1100 ft. from runway, 151 ft. right of centerline, 23:1 slope to clear48 ft. tree, 1000 ft. from runway, 194 ft. right of centerline, 16:1 slope to clear

Airport Ownership and Management from official FAA records

Ownership: Publicly-owned
Owner: CITY OF WINNSBORO
PO BOX 250
WINNSBORO, LA 71295
Phone 318-435-9087
Manager: TRAVIS SHIRLEY
PO BOX 250
WINNSBORO, LA 71295
Phone (318) 439-1279

Airport Operational Statistics

Aircraft based on the field: 23
Single engine airplanes: 22
Multi engine airplanes: 1
    
Aircraft operations: avg 68/day *
80% local general aviation
20% transient general aviation
* for 12-month period ending 01 March 2018

Additional Remarks

HEAVY AGRI ACFT OPS JUNE THRU OCT.
RY 18/36 TREES WEST OF RY OBSTRUCT VIEW OF OPERATING ACFT.

Instrument Procedures

There are no published instrument procedures at F89.

Some nearby airports with instrument procedures:

M79 - John H Hooks Jr Memorial Airport (20 nm N)
KMLU - Monroe Regional Airport (28 nm NW)
KTVR - Vicksburg Tallulah Regional Airport (36 nm E)
0R4 - Concordia Parish Airport (37 nm S)
KBQP - Morehouse Memorial Airport (37 nm N)
 
Loc | Ops | Rwys | IFR | FBO | Links
Com | Nav | Svcs | Stats | Notes

AirNav Hotels Sweepstakes
 
Area around F89 (Winnsboro Municipal Airport)
 
Road maps at: MapQuest Bing Google
 
Aerial photo
WARNING: Photo may not be current or correct
Aerial photo of F89 (Winnsboro Municipal Airport)
Do you have a better or more recent aerial photo of Winnsboro Municipal Airport that you would like to share? If so, please send us your photo.

 
Sectional chart

 
Airport distance calculator
Flying to Winnsboro Municipal Airport? Find the distance to fly.

From to F89

Sunrise and sunset
Times for 24-May-2018
 Local
(UTC-5)
 Zulu
(UTC)
Morning civil twilight05:3810:38
Sunrise06:0511:05
Sunset20:0201:02
Evening civil twilight20:3001:30

Current date and time
Zulu (UTC)  24-May-2018 06:05:01
Local (UTC-5)  24-May-2018 01:05:01
 
METAR
KMLU 
28nm NW 
240553Z AUTO 00000KT 10SM CLR 23/21 A3008 RMK AO2 RAE19 SLP185 P0000 60000 T02330206 10267 20233 403330211 58006
KTVR 
36nm E 
240553Z AUTO 17004KT 10SM CLR 21/21 A3007 RMK AO2 RAE01 SLP189 P0000 60064 T02110211 10300 20211 403390211 58008
KBQP 
37nm N 
240555Z AUTO 00000KT 10SM SCT026 OVC046 22/22 A3009 RMK AO2 T02210218 10281 20216
KHEZ 
39nm SE 
240556Z AUTO 00000KT 10SM VCTS OVC055 21/19 A3012 RMK AO2 LTG DSNT ALQDS TSB40E52B54RAB24E37 SLP200 P0000 60000 T02110194 10250 20211 53011
KVKS 
39nm E 
240555Z AUTO 00000KT 10SM CLR 21/21 RMK A01
KRSN 
50nm NW 
240555Z AUTO 00000KT 5SM -RA SCT070 20/19 A3012 RMK AO2 P0001 60041 T01980190 10275 20198 403350191
TAF
KMLU 
28nm NW 
240530Z 2406/2506 VRB03KT P6SM VCSH SCT045 OVC120 TEMPO 2408/2412 3SM BR SCT040 BKN140 BKN250 FM241200 VRB03KT P6SM SCT050 BKN140 BKN250 TEMPO 2412/2414 3SM BR FM241700 VRB05KT P6SM VCTS SCT050CB FM250300 00000KT P6SM SCT150
NOTAMs
Click for the latest NOTAMs
NOTAMs are issued by the DoD/FAA and will open in a separate window not controlled by AirNav.

 

 
 

FBO, Fuel Providers, and Aircraft Ground Support

  
 Business Name 
 
 Contact 
 
 Services / Description 
 
Fuel Prices
 
Comments
  
Southern Air 318-282-4524
no information available

If you are affiliated with Southern Air and would like to show here your services, contact info, web link, logo, and more, click here
100LL
SS $3.95 
 Updated 14-May-2018
 
   2 read write
SS=Self service
Update Fuel Prices
 

Would you like to see your business listed on this page?

 If your business provides an interesting product or service to pilots, flight crews, aircraft, or users of the Winnsboro Municipal Airport, you should consider listing it here.  To start the listing process, click on the button below
 
Add a business
 

Other Pages about Winnsboro Municipal Airport

Update a link
 
Copyright © AirNav, LLC. All rights reserved. Privacy Policy  Contact